createdAt,value
2022-08-25T00:02:21.848Z,16.91
2022-08-25T00:05:18.865Z,17.08
2022-08-25T00:08:16.071Z,16.82
2022-08-25T00:11:21.072Z,17.04
2022-08-25T00:14:36.938Z,16.97
2022-08-25T00:17:33.858Z,16.61
2022-08-25T00:20:31.269Z,16.74
2022-08-25T00:23:28.127Z,16.65
2022-08-25T00:26:26.559Z,16.50
2022-08-25T00:29:26.310Z,16.71
2022-08-25T00:32:24.476Z,16.59
2022-08-25T00:35:21.595Z,16.49
2022-08-25T00:38:18.498Z,16.45
2022-08-25T00:41:21.761Z,16.66
2022-08-25T00:44:19.705Z,16.39
2022-08-25T00:47:17.596Z,16.27
2022-08-25T00:50:15.760Z,16.43
2022-08-25T00:53:13.404Z,16.30
2022-08-25T00:56:12.993Z,16.27
2022-08-25T00:59:10.695Z,16.32
2022-08-25T01:02:13.633Z,16.23
2022-08-25T01:05:11.109Z,16.37
2022-08-25T01:08:09.324Z,16.28
2022-08-25T01:11:10.807Z,16.42
2022-08-25T01:14:09.507Z,16.48
2022-08-25T01:17:06.387Z,16.35
2022-08-25T01:20:03.988Z,16.25
2022-08-25T01:23:01.611Z,16.21
2022-08-25T01:26:21.136Z,16.27
2022-08-25T01:29:27.912Z,16.50
2022-08-25T01:32:25.327Z,16.37
2022-08-25T01:35:22.168Z,16.33
2022-08-25T01:38:20.871Z,16.50
2022-08-25T01:41:40.139Z,16.35
2022-08-25T01:44:45.299Z,16.09
2022-08-25T01:47:42.179Z,15.96
2022-08-25T01:50:40.540Z,15.99
2022-08-25T01:53:37.370Z,16.05
2022-08-25T01:56:34.287Z,15.92
2022-08-25T01:59:31.146Z,15.99
2022-08-25T02:02:28.219Z,16.01
2022-08-25T02:05:28.374Z,16.00
2022-08-25T02:08:29.577Z,15.82
2022-08-25T02:11:27.068Z,15.78
2022-08-25T02:14:24.176Z,15.83
2022-08-25T02:17:21.095Z,15.91
2022-08-25T02:20:18.045Z,15.93
2022-08-25T02:23:15.503Z,15.87
2022-08-25T02:26:16.652Z,15.81
2022-08-25T02:29:13.626Z,15.92
2022-08-25T02:32:10.473Z,15.86
2022-08-25T02:35:08.882Z,15.77
2022-08-25T02:38:06.744Z,15.67
2022-08-25T02:41:19.628Z,15.71
2022-08-25T02:44:16.470Z,15.68
2022-08-25T02:47:13.305Z,15.66
2022-08-25T02:50:10.828Z,15.48
2022-08-25T02:53:07.668Z,15.64
2022-08-25T02:56:04.614Z,15.75
2022-08-25T02:59:02.816Z,15.38
2022-08-25T03:01:59.677Z,15.39
2022-08-25T03:04:57.218Z,15.48
2022-08-25T03:07:54.149Z,15.61
2022-08-25T03:10:52.068Z,15.66
2022-08-25T03:13:52.035Z,15.63
2022-08-25T03:16:49.025Z,15.49
2022-08-25T03:19:46.567Z,15.44
2022-08-25T03:22:43.786Z,15.62
2022-08-25T03:26:00.644Z,15.64
2022-08-25T03:28:59.226Z,15.59
2022-08-25T03:31:58.272Z,15.41
2022-08-25T03:34:55.232Z,15.36
2022-08-25T03:37:57.011Z,15.42
2022-08-25T03:40:54.173Z,15.46
2022-08-25T03:43:51.486Z,15.22
2022-08-25T03:46:51.935Z,15.34
2022-08-25T03:49:48.820Z,15.11
2022-08-25T03:52:51.425Z,15.39
2022-08-25T03:55:48.521Z,15.16
2022-08-25T03:58:45.821Z,15.19
2022-08-25T04:01:45.620Z,15.20
2022-08-25T04:04:42.539Z,15.25
2022-08-25T04:07:39.643Z,15.13
2022-08-25T04:10:37.815Z,14.96
2022-08-25T04:13:36.750Z,15.02
2022-08-25T04:16:35.726Z,14.94
2022-08-25T04:19:32.585Z,15.14
2022-08-25T04:22:31.054Z,14.99
2022-08-25T04:25:29.300Z,15.26
2022-08-25T04:28:26.270Z,14.97
2022-08-25T04:31:23.822Z,15.07
2022-08-25T04:34:29.942Z,15.27
2022-08-25T04:37:28.174Z,15.02
2022-08-25T04:40:29.065Z,15.23
2022-08-25T04:43:26.193Z,15.12
2022-08-25T04:46:26.860Z,15.04
2022-08-25T04:49:23.919Z,15.06
2022-08-25T04:52:20.817Z,15.11
2022-08-25T04:55:18.220Z,15.02
2022-08-25T04:58:17.117Z,15.12
2022-08-25T05:01:18.383Z,15.30
2022-08-25T05:04:28.390Z,15.31
2022-08-25T05:07:25.895Z,15.20
2022-08-25T05:10:23.407Z,15.25
2022-08-25T05:13:23.423Z,15.41
2022-08-25T05:16:24.641Z,15.42
2022-08-25T05:19:22.770Z,15.42
2022-08-25T05:22:19.612Z,15.49
2022-08-25T05:25:16.551Z,15.61
2022-08-25T05:28:14.775Z,15.55
2022-08-25T05:31:14.084Z,15.69
2022-08-25T05:34:12.110Z,15.72
2022-08-25T05:37:12.021Z,15.77
2022-08-25T05:40:10.288Z,15.86
2022-08-25T05:43:07.200Z,15.60
2022-08-25T05:46:04.301Z,15.83
2022-08-25T05:49:01.934Z,15.96
2022-08-25T05:51:59.260Z,16.00
2022-08-25T05:54:56.126Z,16.03
2022-08-25T05:57:52.973Z,16.06
2022-08-25T06:00:51.240Z,16.02
2022-08-25T06:03:49.282Z,16.09
2022-08-25T06:06:46.848Z,16.41
2022-08-25T06:09:45.989Z,16.36
2022-08-25T06:12:44.886Z,16.47
2022-08-25T06:15:41.781Z,16.44
2022-08-25T06:18:38.655Z,16.63
2022-08-25T06:21:37.336Z,16.68
2022-08-25T06:24:34.369Z,16.82
2022-08-25T06:27:31.531Z,16.98
2022-08-25T06:30:29.078Z,16.93
2022-08-25T06:33:27.031Z,17.10
2022-08-25T06:36:24.116Z,17.30
2022-08-25T06:39:22.181Z,17.38
2022-08-25T06:42:19.420Z,17.55
2022-08-25T06:45:16.571Z,17.73
2022-08-25T06:48:13.534Z,17.90
2022-08-25T06:51:14.908Z,17.91
2022-08-25T06:54:12.259Z,18.18
2022-08-25T06:57:09.493Z,18.54
2022-08-25T07:00:10.599Z,18.62
2022-08-25T07:03:09.274Z,18.93
2022-08-25T07:06:08.511Z,19.19
2022-08-25T07:09:09.260Z,19.35
2022-08-25T07:12:06.738Z,19.59
2022-08-25T07:15:19.503Z,19.71
2022-08-25T07:18:17.158Z,19.56
2022-08-25T07:21:15.570Z,19.88
2022-08-25T07:24:14.529Z,19.87
2022-08-25T07:27:11.482Z,20.09
2022-08-25T07:30:09.948Z,19.93
2022-08-25T07:33:11.332Z,20.20
2022-08-25T07:36:08.606Z,20.44
2022-08-25T07:39:06.377Z,20.49
2022-08-25T07:42:03.453Z,20.71
2022-08-25T07:45:00.337Z,20.69
2022-08-25T07:48:04.623Z,20.83
2022-08-25T07:51:08.781Z,21.10
2022-08-25T07:54:06.268Z,21.06
2022-08-25T07:57:04.836Z,21.25
2022-08-25T08:00:02.076Z,21.17
2022-08-25T08:03:08.058Z,21.12
2022-08-25T08:06:13.259Z,21.42
2022-08-25T08:09:12.030Z,21.71
2022-08-25T08:12:09.474Z,21.68
2022-08-25T08:15:10.295Z,21.98
2022-08-25T08:18:07.562Z,21.95
2022-08-25T08:21:04.704Z,22.08
2022-08-25T08:24:02.074Z,22.25
2022-08-25T08:27:02.716Z,22.29
2022-08-25T08:29:59.607Z,22.21
2022-08-25T08:33:12.855Z,22.49
2022-08-25T08:36:12.488Z,22.40
2022-08-25T08:39:09.452Z,22.56
2022-08-25T08:42:29.930Z,22.76
2022-08-25T08:45:40.208Z,22.78
2022-08-25T08:49:02.071Z,23.00
2022-08-25T08:52:03.073Z,23.12
2022-08-25T08:55:07.738Z,23.26
2022-08-25T08:58:26.559Z,23.02
2022-08-25T09:01:54.112Z,23.13
2022-08-25T09:05:03.723Z,23.00
2022-08-25T09:08:07.562Z,23.01
2022-08-25T09:11:50.402Z,22.89
2022-08-25T09:15:13.325Z,22.86
2022-08-25T09:18:39.010Z,23.31
2022-08-25T09:21:57.319Z,23.15
2022-08-25T09:25:39.646Z,23.28
2022-08-25T09:28:51.372Z,23.12
2022-08-25T09:31:49.558Z,23.22
2022-08-25T09:34:50.266Z,23.35
2022-08-25T09:38:01.718Z,23.43
2022-08-25T09:41:01.721Z,23.20
2022-08-25T09:43:58.567Z,23.26
2022-08-25T09:47:13.802Z,23.32
2022-08-25T09:50:18.462Z,23.41
2022-08-25T09:53:18.598Z,23.50
2022-08-25T09:56:19.278Z,23.84
2022-08-25T09:59:35.239Z,24.06
2022-08-25T10:02:32.862Z,24.49
2022-08-25T10:05:35.122Z,23.83
2022-08-25T10:08:40.795Z,23.68
2022-08-25T10:11:45.057Z,23.75
2022-08-25T10:14:44.233Z,23.99
2022-08-25T10:17:41.922Z,23.83
2022-08-25T10:20:38.833Z,24.40
2022-08-25T10:23:51.619Z,24.48
2022-08-25T10:27:39.244Z,24.50
2022-08-25T10:31:06.988Z,24.16
2022-08-25T10:34:12.276Z,24.27
2022-08-25T10:37:32.982Z,24.30
2022-08-25T10:41:09.971Z,24.38
2022-08-25T10:45:00.579Z,24.55
2022-08-25T10:48:34.957Z,24.34
2022-08-25T10:51:54.636Z,24.19
2022-08-25T10:55:13.224Z,24.18
2022-08-25T10:58:51.254Z,24.01
2022-08-25T11:02:22.706Z,24.03
2022-08-25T11:05:44.031Z,24.29
2022-08-25T11:08:53.439Z,24.21
2022-08-25T11:11:59.561Z,24.21
2022-08-25T11:15:03.656Z,24.42
2022-08-25T11:18:14.969Z,24.77
2022-08-25T11:21:20.390Z,25.15
2022-08-25T11:24:39.163Z,25.22
2022-08-25T11:28:11.950Z,25.42
2022-08-25T11:31:10.586Z,26.07
2022-08-25T11:34:14.427Z,26.72
2022-08-25T11:37:26.034Z,27.29
2022-08-25T11:40:38.784Z,25.78
2022-08-25T11:44:20.428Z,25.79
2022-08-25T11:47:45.589Z,25.49
2022-08-25T11:51:03.317Z,25.40
2022-08-25T11:54:30.263Z,25.50
2022-08-25T11:57:27.222Z,25.48
2022-08-25T12:00:42.650Z,26.12
2022-08-25T12:03:39.440Z,26.39
2022-08-25T12:06:36.919Z,25.93
2022-08-25T12:09:49.861Z,25.64
2022-08-25T12:12:46.631Z,25.65
2022-08-25T12:15:43.320Z,25.70
2022-08-25T12:18:45.823Z,25.61
2022-08-25T12:21:43.255Z,25.70
2022-08-25T12:24:47.931Z,26.03
2022-08-25T12:28:23.307Z,27.01
2022-08-25T12:31:47.596Z,26.43
2022-08-25T12:35:10.280Z,25.98
2022-08-25T12:38:31.739Z,26.13
2022-08-25T12:41:33.759Z,26.04
2022-08-25T12:44:44.673Z,26.23
2022-08-25T12:47:47.541Z,25.83
2022-08-25T12:50:48.170Z,25.84
2022-08-25T12:54:12.419Z,26.09
2022-08-25T12:57:44.637Z,26.00
2022-08-25T13:01:39.284Z,26.07
2022-08-25T13:05:19.619Z,25.94
2022-08-25T13:08:33.924Z,25.97
2022-08-25T13:11:46.675Z,26.10
2022-08-25T13:14:52.198Z,26.41
2022-08-25T13:17:49.195Z,26.88
2022-08-25T13:21:28.371Z,27.29
2022-08-25T13:24:41.688Z,27.02
2022-08-25T13:27:39.818Z,26.51
2022-08-25T13:30:39.127Z,26.32
2022-08-25T13:33:37.226Z,26.33
2022-08-25T13:37:04.051Z,26.77
2022-08-25T13:40:12.824Z,26.53
2022-08-25T13:43:13.349Z,26.53
2022-08-25T13:46:10.710Z,26.55
2022-08-25T13:49:09.321Z,26.68
2022-08-25T13:52:07.263Z,26.52
2022-08-25T13:55:04.850Z,26.54
2022-08-25T13:58:03.615Z,26.52
2022-08-25T14:01:48.133Z,26.50
2022-08-25T14:04:50.538Z,26.54
2022-08-25T14:08:15.745Z,26.54
2022-08-25T14:11:34.340Z,26.65
2022-08-25T14:14:35.149Z,26.64
2022-08-25T14:17:39.592Z,26.73
2022-08-25T14:20:43.258Z,26.75
2022-08-25T14:23:42.219Z,26.78
2022-08-25T14:26:39.178Z,27.03
2022-08-25T14:29:52.900Z,27.17
2022-08-25T14:32:51.041Z,26.99
2022-08-25T14:35:51.555Z,26.99
2022-08-25T14:38:54.635Z,26.95
2022-08-25T14:41:53.901Z,26.83
2022-08-25T14:44:50.847Z,26.65
2022-08-25T14:47:49.824Z,26.49
2022-08-25T14:50:47.110Z,26.55
2022-08-25T14:53:47.847Z,26.57
2022-08-25T14:56:48.284Z,26.60
2022-08-25T14:59:45.137Z,26.68
2022-08-25T15:02:47.934Z,26.69
2022-08-25T15:05:46.197Z,26.81
2022-08-25T15:09:03.552Z,26.99
2022-08-25T15:12:00.443Z,27.21
2022-08-25T15:14:58.201Z,27.27
2022-08-25T15:17:58.116Z,27.32
2022-08-25T15:20:57.442Z,27.47
2022-08-25T15:23:56.540Z,27.57
2022-08-25T15:26:57.581Z,27.17
2022-08-25T15:29:54.425Z,27.04
2022-08-25T15:32:52.006Z,27.14
2022-08-25T15:35:53.492Z,27.04
2022-08-25T15:38:51.208Z,26.91
2022-08-25T15:41:54.140Z,26.92
2022-08-25T15:44:53.387Z,26.99
2022-08-25T15:47:53.877Z,26.92
2022-08-25T15:50:56.781Z,26.90
2022-08-25T15:53:53.963Z,26.91
2022-08-25T15:56:52.487Z,26.79
2022-08-25T15:59:49.364Z,26.81
2022-08-25T16:02:46.504Z,26.81
2022-08-25T16:05:47.957Z,26.60
2022-08-25T16:08:45.704Z,26.38
2022-08-25T16:11:43.393Z,26.41
2022-08-25T16:14:40.578Z,26.25
2022-08-25T16:17:37.426Z,25.92
2022-08-25T16:20:37.832Z,25.92
2022-08-25T16:23:34.689Z,25.85
2022-08-25T16:26:32.631Z,25.86
2022-08-25T16:29:35.887Z,26.38
2022-08-25T16:32:32.963Z,26.45
2022-08-25T16:35:29.858Z,26.09
2022-08-25T16:38:26.696Z,26.29
2022-08-25T16:41:33.848Z,26.13
2022-08-25T16:44:30.768Z,26.22
2022-08-25T16:47:27.616Z,26.29
2022-08-25T16:50:25.472Z,26.20
2022-08-25T16:53:40.896Z,25.93
2022-08-25T16:56:42.735Z,25.38
2022-08-25T16:59:39.809Z,25.22
2022-08-25T17:02:37.366Z,25.19
2022-08-25T17:05:41.876Z,25.98
2022-08-25T17:08:39.307Z,25.61
2022-08-25T17:11:46.888Z,25.08
2022-08-25T17:14:43.727Z,25.19
2022-08-25T17:17:40.574Z,24.76
2022-08-25T17:20:38.242Z,24.62
2022-08-25T17:23:36.701Z,24.82
2022-08-25T17:26:36.972Z,24.52
2022-08-25T17:29:34.977Z,24.60
2022-08-25T17:32:31.838Z,24.49
2022-08-25T17:35:29.578Z,24.46
2022-08-25T17:38:28.442Z,24.28
2022-08-25T17:41:25.904Z,24.18
2022-08-25T17:44:22.790Z,24.17
2022-08-25T17:47:19.648Z,24.05
2022-08-25T17:50:16.968Z,24.00
2022-08-25T17:53:14.393Z,23.81
2022-08-25T17:56:19.113Z,23.92
2022-08-25T17:59:16.798Z,24.02
2022-08-25T18:02:14.467Z,23.74
2022-08-25T18:05:12.953Z,23.69
2022-08-25T18:08:10.491Z,23.37
2022-08-25T18:11:08.470Z,23.45
2022-08-25T18:14:05.448Z,23.24
2022-08-25T18:17:03.711Z,22.94
2022-08-25T18:20:06.118Z,22.91
2022-08-25T18:23:05.814Z,22.79
2022-08-25T18:26:06.748Z,22.75
2022-08-25T18:29:05.100Z,22.58
2022-08-25T18:32:02.824Z,22.64
2022-08-25T18:35:02.021Z,22.45
2022-08-25T18:38:17.294Z,22.29
2022-08-25T18:41:14.393Z,22.12
2022-08-25T18:44:11.577Z,21.98
2022-08-25T18:47:08.418Z,22.03
2022-08-25T18:50:06.173Z,21.96
2022-08-25T18:53:04.411Z,21.93
2022-08-25T18:56:03.589Z,21.77
2022-08-25T18:59:00.476Z,21.92
2022-08-25T19:01:57.624Z,22.10
2022-08-25T19:04:54.601Z,22.11
2022-08-25T19:07:52.059Z,22.03
2022-08-25T19:10:52.793Z,21.82
2022-08-25T19:13:50.803Z,21.61
2022-08-25T19:16:47.673Z,21.43
2022-08-25T19:19:44.911Z,21.56
2022-08-25T19:22:42.391Z,21.45
2022-08-25T19:25:41.620Z,21.22
2022-08-25T19:28:38.712Z,21.34
2022-08-25T19:31:45.599Z,21.30
2022-08-25T19:34:47.272Z,21.18
2022-08-25T19:37:49.818Z,21.18
2022-08-25T19:40:49.899Z,20.98
2022-08-25T19:43:55.804Z,20.95
2022-08-25T19:46:54.385Z,20.92
2022-08-25T19:49:51.693Z,20.94
2022-08-25T19:52:49.950Z,20.82
2022-08-25T19:55:47.081Z,20.93
2022-08-25T19:58:43.935Z,20.84
2022-08-25T20:01:41.984Z,20.81
2022-08-25T20:04:38.867Z,20.76
2022-08-25T20:07:37.055Z,20.65
2022-08-25T20:10:39.489Z,20.59
2022-08-25T20:13:39.020Z,20.51
2022-08-25T20:16:37.906Z,20.58
2022-08-25T20:19:34.771Z,20.56
2022-08-25T20:22:33.172Z,20.45
2022-08-25T20:25:36.779Z,20.45
2022-08-25T20:28:33.903Z,20.46
2022-08-25T20:31:31.760Z,20.29
2022-08-25T20:34:29.763Z,20.33
2022-08-25T20:37:29.880Z,20.31
2022-08-25T20:40:30.094Z,20.32
2022-08-25T20:43:29.509Z,20.29
2022-08-25T20:46:26.476Z,20.02
2022-08-25T20:49:26.718Z,20.18
2022-08-25T20:52:23.571Z,20.26
2022-08-25T20:55:21.789Z,20.10
2022-08-25T20:58:18.627Z,20.18
2022-08-25T21:01:24.132Z,20.16
2022-08-25T21:04:23.912Z,19.99
2022-08-25T21:07:23.923Z,19.85
2022-08-25T21:10:21.115Z,20.01
2022-08-25T21:13:17.935Z,19.92
2022-08-25T21:16:15.114Z,19.71
2022-08-25T21:19:15.084Z,19.68
2022-08-25T21:22:12.558Z,19.82
2022-08-25T21:25:10.310Z,19.82
2022-08-25T21:28:07.775Z,19.70
2022-08-25T21:31:08.379Z,19.66
2022-08-25T21:34:05.477Z,19.67
2022-08-25T21:37:02.371Z,19.62
2022-08-25T21:39:59.265Z,19.71
2022-08-25T21:42:56.719Z,19.51
2022-08-25T21:45:53.639Z,19.44
2022-08-25T21:48:53.104Z,19.60
2022-08-25T21:51:59.326Z,19.57
2022-08-25T21:54:57.575Z,19.25
2022-08-25T21:57:54.786Z,19.39
2022-08-25T22:00:51.713Z,19.39
2022-08-25T22:03:50.281Z,19.19
2022-08-25T22:06:47.785Z,19.22
2022-08-25T22:09:44.646Z,19.10
2022-08-25T22:12:41.579Z,19.27
2022-08-25T22:15:38.423Z,19.14
2022-08-25T22:18:35.268Z,19.24
2022-08-25T22:21:32.715Z,19.19
2022-08-25T22:24:29.645Z,19.18
2022-08-25T22:27:26.562Z,19.09
2022-08-25T22:30:25.409Z,19.05
2022-08-25T22:33:26.188Z,18.98
2022-08-25T22:36:30.694Z,19.09
2022-08-25T22:39:28.308Z,19.05
2022-08-25T22:42:25.516Z,19.00
2022-08-25T22:45:22.684Z,19.01
2022-08-25T22:48:20.771Z,18.86
2022-08-25T22:51:22.282Z,18.87
2022-08-25T22:54:19.138Z,18.81
2022-08-25T22:57:16.047Z,18.72
2022-08-25T23:00:16.712Z,18.76
2022-08-25T23:03:13.640Z,18.81
2022-08-25T23:06:24.835Z,18.79
2022-08-25T23:09:22.301Z,18.63
2022-08-25T23:12:23.576Z,18.42
2022-08-25T23:15:20.415Z,18.18
2022-08-25T23:18:18.408Z,18.45
2022-08-25T23:21:41.055Z,18.48
2022-08-25T23:24:46.061Z,18.57
2022-08-25T23:27:42.914Z,18.58
2022-08-25T23:30:42.783Z,18.43
2022-08-25T23:33:41.965Z,18.55
2022-08-25T23:36:38.940Z,18.60
2022-08-25T23:39:36.139Z,18.56
2022-08-25T23:42:36.137Z,18.56
2022-08-25T23:45:34.301Z,18.54
2022-08-25T23:48:31.564Z,18.41
2022-08-25T23:51:34.472Z,18.27
2022-08-25T23:54:34.144Z,18.37
2022-08-25T23:57:31.931Z,18.30
